Emmet, AR (71835)

3:18 AM CDT on March 24, 2017 (GMT -0500)
HopePrescott.com Hope Office | | Change Station
Active Advisory: Lake Wind Advisory

Elev 357 ft 33.66 °N, 93.59 °W | Updated 5 seconds ago

Partly Cloudy
Partly Cloudy
65.7 °F
Feels Like 65.7 °F
N
0.0
Wind Variable Wind from North
Gusts 0.0 mph

Today
High -- | Low -- °F
--% Chance of Precip.
Yesterday
High -- | Low -- °F
Precip. -- in
Pressure 30.02 in
Visibility 10.0 miles
Clouds Clear
Dew Point 54 °F
Humidity 67%
Rainfall 0.00 in
Snow Depth Not available.
7:11 AM 7:28 PM
Waning Crescent, 17% visible
METAR KADF 240756Z AUTO 00000KT 10SM CLR 14/12 A3002 RMK AO2 SLP166 T01390122
Pressure 30.02 in
Visibility 10.0 miles
Clouds Clear
Dew Point 54 °F
Humidity 67%
Rainfall 0.00 in
Snow Depth Not available.
7:11 AM 7:28 PM
Waning Crescent, 17% visible
METAR KADF 240756Z AUTO 00000KT 10SM CLR 14/12 A3002 RMK AO2 SLP166 T01390122

Get Your Daily Forecast Email!

Thanks for signing up!

Be on the lookout for a verification email in your inbox.

You'll start receiving severe weather alerts in your inbox..

×

10-Day Weather Forecast

Almanac

Astronomy

Mar. 24, 2017 Rise Set
Actual Time
Civil Twilight
Nautical Twilight
Astronomical Twilight
Moon
Length of Visible Light
Length of Day
Tomorrow will be .
, % of the Moon is Illuminated

Today's Extremes

State Highs State Lows

Community

WunderPhotos

Upload Photos

1,962,540 photos uploaded!

WunderBlog® & News

Nearby

Air Quality

  Air Quality AQ Index Pollutant
Not available.

Snow Depth

Station Depth Elevation

Earthquake Activity

City Distance Mag. Time & Date
Minimum magnitude displayed is 2.5.

Earthquake Activity

City Distance Mag. Time & Date
Minimum magnitude displayed is 2.5.

Coastal Water Temperatures

Place Temperature

Stations

Nearby Weather Stations

Station Location Temp. Windchill Dew Point Humidity Wind Precip. Elev Updated Type
                   

Watches & Warnings

Lake Wind Advisory
Issued: 8:07 PM CDT Mar. 23, 2017 – National Weather Service

... Lake Wind Advisory in effect from 10 am Friday to 4 am CDT
Saturday...

The National Weather Service in Shreveport has issued a lake Wind
Advisory, which is in effect from 10 am Friday to 4 am CDT
Saturday.

* Event... south to southwest winds 15 to 25 mph with higher
gusts to 25 to 30 mph Friday and Friday night just before a
shift in the winds to westerly with a cold front early Saturday
morning.

* Timing... from 10 am CDT Friday through 4 am CDT Saturday.

* Impact... winds will likely produce a rough chop on area lakes
and open waterways, which may be hazardous to boaters especially
smaller craft.

Precautionary/preparedness actions...

A lake Wind Advisory indicates that winds will cause rough chop
on area lakes. Small boats will be especially prone to capsizing.



06